KIRS/IRS METAR and TAF weather

Enter ICAO airport designator
Station Type Date Time Source
KIRS METAR 2019/08/24 07:16 UTC NOAA

KIRS 240716Z AUTO 07003KT 10SM CLR 14/11 A3025 RMK AO2 T01360105


Station Type Date Time Source
KIRS Decoded METAR 2019/08/24 07:16 UTC NOAA

Station name not available
Aug 24, 2019 - 03:16 AM EDT / 2019.08.24 0716 UTC
Wind: from the ENE (070 degrees) at 3 MPH (3 KT):0
Visibility: 10 mile(s):0
Sky conditions: clear
Temperature: 56.5 F (13.6 C)
Dew Point: 50.9 F (10.5 C)
Relative Humidity: 81%
Pressure (altimeter): 30.25 in. Hg (1024 hPa)
ob: KIRS 240716Z AUTO 07003KT 10SM CLR 14/11 A3025 RMK AO2 T01360105
cycle: 7

Station Type Date Time Source
KIRS TAF UTC NOAA

Error!

Example: see airport list